createdAt,value
2018-03-08T00:00:41.138Z,98474.04
2018-03-08T00:03:42.421Z,98436.13
2018-03-08T00:06:43.645Z,98497.30
2018-03-08T00:09:44.880Z,98495.36
2018-03-08T00:12:46.832Z,98491.97
2018-03-08T00:15:54.917Z,98494.86
2018-03-08T00:18:56.140Z,98500.82
2018-03-08T00:21:58.444Z,98503.76
2018-03-08T00:24:59.700Z,98504.47
2018-03-08T00:28:01.727Z,98503.04
2018-03-08T00:31:02.939Z,98505.63
2018-03-08T00:34:04.911Z,98509.67
2018-03-08T00:37:06.908Z,98508.56
2018-03-08T00:40:08.864Z,98516.70
2018-03-08T00:43:10.111Z,98512.97
2018-03-08T00:46:11.320Z,98510.42
2018-03-08T00:49:12.598Z,98510.52
2018-03-08T00:52:13.817Z,98520.55
2018-03-08T00:55:15.033Z,98518.83
2018-03-08T00:58:16.252Z,98526.78
2018-03-08T01:01:18.221Z,98513.50
2018-03-08T01:04:19.438Z,98510.08
2018-03-08T01:07:20.660Z,98519.08
2018-03-08T01:10:22.611Z,98521.84
2018-03-08T01:13:23.834Z,98527.32
2018-03-08T01:16:25.040Z,98524.42
2018-03-08T01:19:26.269Z,98527.39
2018-03-08T01:22:27.483Z,98548.03
2018-03-08T01:25:29.432Z,98536.64
2018-03-08T01:28:30.668Z,98539.38
2018-03-08T01:31:31.904Z,98544.52
2018-03-08T01:34:33.123Z,98544.90
2018-03-08T01:37:34.380Z,98546.93
2018-03-08T01:40:35.612Z,98546.67
2018-03-08T01:43:36.833Z,98547.66
2018-03-08T01:46:38.779Z,98548.17
2018-03-08T01:49:40.036Z,98548.55
2018-03-08T01:52:41.264Z,98541.81
2018-03-08T01:55:42.483Z,98546.18
2018-03-08T01:58:43.726Z,98546.11
2018-03-08T02:01:45.677Z,98560.00
2018-03-08T02:04:46.897Z,98559.39
2018-03-08T02:07:48.103Z,98565.11
2018-03-08T02:10:49.318Z,98564.47
2018-03-08T02:13:50.552Z,98561.67
2018-03-08T02:16:51.764Z,98567.70
2018-03-08T02:19:53.724Z,98566.61
2018-03-08T02:22:54.950Z,98576.80
2018-03-08T02:25:56.172Z,98574.12
2018-03-08T02:28:58.120Z,98567.80
2018-03-08T02:31:59.344Z,98578.25
2018-03-08T02:35:00.557Z,98570.08
2018-03-08T02:38:01.805Z,98582.05
2018-03-08T02:41:03.034Z,98591.55
2018-03-08T02:44:04.240Z,98586.27
2018-03-08T02:47:05.473Z,98584.20
2018-03-08T02:50:06.708Z,98589.81
2018-03-08T02:53:07.934Z,98594.29
2018-03-08T02:56:09.912Z,98598.30
2018-03-08T02:59:11.868Z,98596.41
2018-03-08T03:02:13.110Z,98593.84
2018-03-08T03:05:14.341Z,98603.11
2018-03-08T03:08:15.564Z,98599.15
2018-03-08T03:11:16.897Z,98598.94
2018-03-08T03:14:18.139Z,98601.94
2018-03-08T03:17:19.376Z,98603.33
2018-03-08T03:20:21.336Z,98610.81
2018-03-08T03:23:22.556Z,98605.92
2018-03-08T03:26:23.776Z,98605.00
2018-03-08T03:29:25.735Z,98602.38
2018-03-08T03:32:26.952Z,98603.91
2018-03-08T03:35:28.163Z,98600.88
2018-03-08T03:38:29.412Z,98605.08
2018-03-08T03:41:30.648Z,98608.56
2018-03-08T03:44:31.847Z,98609.38
2018-03-08T03:47:33.067Z,98609.88
2018-03-08T03:50:34.261Z,98618.86
2018-03-08T03:53:36.213Z,98610.91
2018-03-08T03:56:37.429Z,98609.08
2018-03-08T03:59:39.395Z,98616.17
2018-03-08T04:02:40.628Z,98610.89
2018-03-08T04:05:41.836Z,98614.00
2018-03-08T04:08:43.800Z,98618.03
2018-03-08T04:11:44.984Z,98620.24
2018-03-08T04:14:46.944Z,98624.95
2018-03-08T04:17:48.147Z,98620.17
2018-03-08T04:20:49.341Z,98619.83
2018-03-08T04:23:50.552Z,98621.37
2018-03-08T04:26:52.476Z,98626.44
2018-03-08T04:29:53.704Z,98619.67
2018-03-08T04:32:54.907Z,98624.52
2018-03-08T04:35:56.121Z,98628.92
2018-03-08T04:38:58.052Z,98624.48
2018-03-08T04:41:59.253Z,98626.88
2018-03-08T04:45:01.202Z,98623.63
2018-03-08T04:48:02.427Z,98619.08
2018-03-08T04:51:03.652Z,98636.52
2018-03-08T04:54:04.841Z,98625.34
2018-03-08T04:57:06.047Z,98632.67
2018-03-08T05:00:07.268Z,98639.73
2018-03-08T05:03:08.476Z,98641.95
2018-03-08T05:06:09.682Z,98636.83
2018-03-08T05:09:10.910Z,98636.81
2018-03-08T05:12:12.128Z,98635.67
2018-03-08T05:15:13.355Z,98634.16
2018-03-08T05:18:15.286Z,98636.58
2018-03-08T05:21:16.481Z,98639.87
2018-03-08T05:24:17.692Z,98637.45
2018-03-08T05:27:18.889Z,98644.06
2018-03-08T05:30:20.096Z,98652.54
2018-03-08T05:33:21.272Z,98653.52
2018-03-08T05:36:22.489Z,98654.09
2018-03-08T05:39:23.701Z,98650.57
2018-03-08T05:42:24.905Z,98660.09
2018-03-08T05:45:26.106Z,98659.43
2018-03-08T05:48:27.311Z,98656.00
2018-03-08T05:51:28.520Z,98654.70
2018-03-08T05:54:30.524Z,98661.62
2018-03-08T05:57:31.764Z,98662.07
2018-03-08T06:00:33.733Z,98668.45
2018-03-08T06:03:35.681Z,98679.14
2018-03-08T06:06:36.904Z,98680.47
2018-03-08T06:09:38.108Z,98672.23
2018-03-08T06:12:39.325Z,98671.52
2018-03-08T06:15:40.551Z,98672.30
2018-03-08T06:18:41.768Z,98676.35
2018-03-08T06:21:42.961Z,98681.19
2018-03-08T06:24:44.153Z,98679.52
2018-03-08T06:27:46.097Z,98693.17
2018-03-08T06:30:47.318Z,98698.60
2018-03-08T06:33:48.554Z,98703.41
2018-03-08T06:36:50.671Z,98696.98
2018-03-08T06:39:51.861Z,98695.44
2018-03-08T06:42:53.091Z,98698.52
2018-03-08T06:45:54.286Z,98698.91
2018-03-08T06:48:55.505Z,98692.95
2018-03-08T06:51:56.706Z,98690.32
2018-03-08T06:54:57.956Z,98692.88
2018-03-08T06:57:59.188Z,98686.70
2018-03-08T07:01:00.413Z,98688.14
2018-03-08T07:04:01.635Z,98684.38
2018-03-08T07:07:02.900Z,98690.50
2018-03-08T07:10:04.133Z,98689.45
2018-03-08T07:13:06.097Z,98683.77
2018-03-08T07:16:08.065Z,98690.15
2018-03-08T07:19:09.281Z,98677.68
2018-03-08T07:22:10.504Z,98677.24
2018-03-08T07:25:12.517Z,98687.22
2018-03-08T07:28:13.745Z,98700.33
2018-03-08T07:31:22.755Z,98694.00
2018-03-08T07:34:23.974Z,98696.50
2018-03-08T07:37:25.216Z,98674.98
2018-03-08T07:40:34.092Z,98698.53
2018-03-08T07:43:35.326Z,98693.46
2018-03-08T07:46:37.357Z,98690.41
2018-03-08T07:49:38.558Z,98692.41
2018-03-08T07:52:39.765Z,98682.81
2018-03-08T07:55:40.985Z,98685.98
2018-03-08T07:58:42.209Z,98670.56
2018-03-08T08:01:43.452Z,98674.33
2018-03-08T08:05:03.359Z,98674.73
2018-03-08T08:08:23.184Z,98676.09
2018-03-08T08:11:24.426Z,98669.18
2018-03-08T08:14:25.713Z,98679.78
2018-03-08T08:17:26.905Z,98660.98
2018-03-08T08:20:28.918Z,98680.89
2018-03-08T08:23:30.132Z,98679.89
2018-03-08T08:26:31.369Z,98662.75
2018-03-08T08:29:32.561Z,98672.05
2018-03-08T08:32:33.758Z,98673.14
2018-03-08T08:35:35.048Z,98656.45
2018-03-08T08:38:36.237Z,98664.02
2018-03-08T08:41:37.424Z,98649.67
2018-03-08T08:44:39.362Z,98659.45
2018-03-08T08:47:40.597Z,98667.86
2018-03-08T08:50:41.840Z,98666.50
2018-03-08T08:53:43.057Z,98654.96
2018-03-08T08:56:44.266Z,98660.27
2018-03-08T08:59:45.474Z,98648.11
2018-03-08T09:02:46.682Z,98640.58
2018-03-08T09:05:48.609Z,98638.72
2018-03-08T09:08:49.826Z,98656.81
2018-03-08T09:11:51.789Z,98645.92
2018-03-08T09:14:53.739Z,98649.59
2018-03-08T09:17:54.959Z,98634.77
2018-03-08T09:20:56.153Z,98624.83
2018-03-08T09:23:57.366Z,98621.00
2018-03-08T09:26:59.313Z,98624.67
2018-03-08T09:30:02.018Z,98615.86
2018-03-08T09:33:03.252Z,98612.88
2018-03-08T09:36:04.512Z,98600.84
2018-03-08T09:39:05.729Z,98605.59
2018-03-08T09:42:07.661Z,98609.62
2018-03-08T09:45:08.862Z,98602.06
2018-03-08T09:48:10.832Z,98620.92
2018-03-08T09:51:12.022Z,98617.80
2018-03-08T09:54:14.009Z,98615.06
2018-03-08T09:57:15.188Z,98610.94
2018-03-08T10:00:16.411Z,98601.03
2018-03-08T10:03:18.350Z,98586.25
2018-03-08T10:06:19.536Z,98575.61
2018-03-08T10:09:27.810Z,98589.70
2018-03-08T10:12:29.708Z,98580.50
2018-03-08T10:15:30.933Z,98581.44
2018-03-08T10:18:32.884Z,98580.27
2018-03-08T10:21:45.060Z,98576.99
2018-03-08T10:24:35.325Z,98564.98
2018-03-08T10:27:37.257Z,98562.02
2018-03-08T10:30:38.467Z,98568.72
2018-03-08T10:33:40.397Z,98561.00
2018-03-08T10:36:41.616Z,98555.17
2018-03-08T10:39:43.585Z,98588.92
2018-03-08T10:42:45.522Z,98559.30
2018-03-08T10:45:46.760Z,98569.81
2018-03-08T10:51:49.174Z,98564.84
2018-03-08T10:54:50.369Z,98557.09
2018-03-08T10:57:51.553Z,98562.13
2018-03-08T11:00:54.750Z,98563.59
2018-03-08T11:03:55.955Z,98557.54
2018-03-08T11:06:57.909Z,98559.13
2018-03-08T11:09:59.133Z,98557.64
2018-03-08T11:13:01.099Z,98562.80
2018-03-08T11:16:02.321Z,98555.27
2018-03-08T11:19:03.531Z,98547.00
2018-03-08T11:22:04.725Z,98546.18
2018-03-08T11:25:05.915Z,98531.88
2018-03-08T11:28:07.892Z,98547.58
2018-03-08T11:31:09.857Z,98517.18
2018-03-08T11:34:11.033Z,98515.04
2018-03-08T11:37:12.969Z,98497.57
2018-03-08T11:40:14.185Z,98509.03
2018-03-08T11:43:16.157Z,98513.00
2018-03-08T11:46:18.105Z,98514.20
2018-03-08T11:49:19.304Z,98505.73
2018-03-08T11:52:21.242Z,98499.42
2018-03-08T11:55:22.826Z,98485.66
2018-03-08T11:58:24.881Z,98487.66
2018-03-08T12:01:26.368Z,98485.36
2018-03-08T12:04:27.580Z,98473.53
2018-03-08T12:07:29.052Z,98472.77
2018-03-08T12:10:30.253Z,98477.72
2018-03-08T12:13:31.737Z,98476.53
2018-03-08T12:16:33.737Z,98456.67
2018-03-08T12:19:36.105Z,98446.11
2018-03-08T12:22:37.515Z,98449.25
2018-03-08T12:25:40.897Z,98447.43
2018-03-08T12:28:42.098Z,98450.24
2018-03-08T12:31:43.292Z,98438.77
2018-03-08T12:34:44.504Z,98434.44
2018-03-08T12:37:46.465Z,98447.38
2018-03-08T12:40:47.693Z,98426.44
2018-03-08T12:43:48.885Z,98433.26
2018-03-08T12:46:50.069Z,98430.88
2018-03-08T12:49:51.288Z,98431.01
2018-03-08T12:52:52.481Z,98447.34
2018-03-08T12:55:54.433Z,98443.15
2018-03-08T12:58:55.641Z,98424.32
2018-03-08T13:01:56.843Z,98435.56
2018-03-08T13:04:58.061Z,98428.13
2018-03-08T13:07:59.263Z,98421.81
2018-03-08T13:11:00.469Z,98415.70
2018-03-08T13:14:02.436Z,98414.85
2018-03-08T13:17:03.640Z,98425.02
2018-03-08T13:20:04.849Z,98423.77
2018-03-08T13:23:06.045Z,98431.41
2018-03-08T13:26:07.989Z,98427.86
2018-03-08T13:29:09.215Z,98407.53
2018-03-08T13:32:10.460Z,98412.67
2018-03-08T13:35:11.692Z,98408.55
2018-03-08T13:38:12.896Z,98408.02
2018-03-08T13:41:14.102Z,98405.30
2018-03-08T13:44:15.313Z,98394.03
2018-03-08T13:47:16.527Z,98389.88
2018-03-08T13:50:17.737Z,98396.16
2018-03-08T13:53:18.929Z,98395.75
2018-03-08T13:56:20.144Z,98398.28
2018-03-08T13:59:22.109Z,98388.13
2018-03-08T14:02:23.325Z,98383.28
2018-03-08T14:05:24.539Z,98380.31
2018-03-08T14:08:26.492Z,98380.47
2018-03-08T14:11:27.724Z,98373.28
2018-03-08T14:14:28.912Z,98385.29
2018-03-08T14:17:30.234Z,98374.39
2018-03-08T14:20:31.462Z,98370.05
2018-03-08T14:23:32.676Z,98375.89
2018-03-08T14:26:33.931Z,98373.95
2018-03-08T14:29:35.148Z,98382.20
2018-03-08T14:32:36.372Z,98395.05
2018-03-08T14:35:37.557Z,98390.25
2018-03-08T14:38:38.760Z,98398.43
2018-03-08T14:41:39.967Z,98390.25
2018-03-08T14:44:41.196Z,98389.02
2018-03-08T14:47:42.428Z,98390.13
2018-03-08T14:50:43.612Z,98397.19
2018-03-08T14:53:44.810Z,98399.55
2018-03-08T14:56:46.014Z,98394.03
2018-03-08T14:59:48.013Z,98384.75
2018-03-08T15:02:49.235Z,98370.31
2018-03-08T15:05:50.429Z,98369.36
2018-03-08T15:08:52.405Z,98364.30
2018-03-08T15:11:54.353Z,98356.50
2018-03-08T15:14:55.656Z,98359.09
2018-03-08T15:17:57.621Z,98340.41
2018-03-08T15:20:59.576Z,98339.09
2018-03-08T15:24:00.779Z,98322.11
2018-03-08T15:27:02.745Z,98326.99
2018-03-08T15:30:04.732Z,98313.55
2018-03-08T15:33:06.693Z,98309.95
2018-03-08T15:36:07.878Z,98301.78
2018-03-08T15:39:09.848Z,98315.28
2018-03-08T15:42:11.821Z,98313.38
2018-03-08T15:45:13.017Z,98327.59
2018-03-08T15:48:14.229Z,98328.06
2018-03-08T15:51:15.429Z,98332.42
2018-03-08T15:54:16.634Z,98317.69
2018-03-08T15:57:17.840Z,98327.06
2018-03-08T16:00:19.781Z,98323.69
2018-03-08T16:03:21.716Z,98324.20
2018-03-08T16:06:41.309Z,98334.03
2018-03-08T16:13:28.261Z,98365.88
2018-03-08T16:16:30.216Z,98361.38
2018-03-08T16:19:31.444Z,98362.66
2018-03-08T16:22:32.641Z,98366.03
2018-03-08T16:25:33.854Z,98377.72
2018-03-08T16:28:35.049Z,98377.87
2018-03-08T16:31:36.271Z,98383.47
2018-03-08T16:34:37.462Z,98384.70
2018-03-08T16:37:38.684Z,98382.08
2018-03-08T16:40:40.652Z,98353.08
2018-03-08T16:43:42.593Z,98381.23
2018-03-08T16:46:43.812Z,98379.55
2018-03-08T16:49:45.012Z,98390.49
2018-03-08T16:52:46.219Z,98385.16
2018-03-08T16:55:48.172Z,98368.33
2018-03-08T16:58:49.376Z,98365.62
2018-03-08T17:01:50.584Z,98385.19
2018-03-08T17:04:51.804Z,98395.58
2018-03-08T17:07:53.012Z,98381.78
2018-03-08T17:10:54.345Z,98380.09
2018-03-08T17:13:55.595Z,98389.77
2018-03-08T17:16:56.855Z,98388.78
2018-03-08T17:19:58.047Z,98407.87
2018-03-08T17:22:59.296Z,98411.74
2018-03-08T17:26:00.522Z,98409.47
2018-03-08T17:29:02.478Z,98420.26
2018-03-08T17:32:03.700Z,98418.69
2018-03-08T17:35:04.922Z,98415.48
2018-03-08T17:38:06.147Z,98415.52
2018-03-08T17:41:07.364Z,98430.17
2018-03-08T17:44:09.341Z,98437.33
2018-03-08T17:47:11.339Z,98430.69
2018-03-08T17:50:12.550Z,98432.67
2018-03-08T17:53:13.769Z,98441.31
2018-03-08T17:56:14.997Z,98448.79
2018-03-08T17:59:16.970Z,98455.11
2018-03-08T18:02:18.213Z,98447.67
2018-03-08T18:05:19.457Z,98459.52
2018-03-08T18:08:20.688Z,98459.06
2018-03-08T18:11:21.912Z,98464.98
2018-03-08T18:14:23.156Z,98469.17
2018-03-08T18:17:25.144Z,98472.67
2018-03-08T18:20:26.389Z,98471.90
2018-03-08T18:23:27.630Z,98470.36
2018-03-08T18:26:28.846Z,98468.35
2018-03-08T18:29:30.137Z,98463.50
2018-03-08T18:32:31.395Z,98475.09
2018-03-08T18:35:33.386Z,98474.78
2018-03-08T18:38:34.617Z,98486.11
2018-03-08T18:41:42.769Z,98477.02
2018-03-08T18:44:44.723Z,98485.39
2018-03-08T18:47:45.978Z,98488.41
2018-03-08T18:50:47.237Z,98499.95
2018-03-08T18:53:48.488Z,98504.73
2018-03-08T18:56:49.731Z,98504.92
2018-03-08T18:59:51.526Z,98502.84
2018-03-08T19:02:52.788Z,98499.64
2018-03-08T19:05:54.784Z,98502.03
2018-03-08T19:08:56.948Z,98524.38
2018-03-08T19:11:58.352Z,98537.98
2018-03-08T19:14:59.812Z,98570.48
2018-03-08T19:18:01.134Z,98646.09
2018-03-08T19:21:02.403Z,98626.72
2018-03-08T19:24:03.665Z,98661.39
2018-03-08T19:27:04.941Z,98672.77
2018-03-08T19:30:06.527Z,98619.47
2018-03-08T19:33:07.760Z,98611.99
2018-03-08T19:36:09.006Z,98607.48
2018-03-08T19:39:10.230Z,98608.33
2018-03-08T19:42:11.562Z,98627.18
2018-03-08T19:45:12.836Z,98619.88
2018-03-08T19:48:14.837Z,98618.17
2018-03-08T19:51:16.544Z,98623.81
2018-03-08T19:54:17.971Z,98634.50
2018-03-08T19:57:20.414Z,98636.91
2018-03-08T20:00:21.685Z,98651.06
2018-03-08T20:03:22.928Z,98633.61
2018-03-08T20:06:24.245Z,98646.47
2018-03-08T20:09:25.704Z,98646.76
2018-03-08T20:12:42.072Z,98651.73
2018-03-08T20:15:43.340Z,98662.33
2018-03-08T20:18:44.770Z,98660.73
2018-03-08T20:21:46.030Z,98660.91
2018-03-08T20:24:47.259Z,98657.63
2018-03-08T20:27:48.635Z,98660.64
2018-03-08T20:30:50.269Z,98668.60
2018-03-08T20:33:51.586Z,98670.91
2018-03-08T20:36:52.816Z,98656.67
2018-03-08T20:39:54.120Z,98671.41
2018-03-08T20:42:55.355Z,98685.69
2018-03-08T20:45:56.851Z,98679.73
2018-03-08T20:48:58.069Z,98691.55
2018-03-08T20:51:59.530Z,98685.81
2018-03-08T20:55:00.804Z,98697.05
2018-03-08T20:58:02.040Z,98703.65
2018-03-08T21:01:04.381Z,98698.31
2018-03-08T21:04:05.642Z,98709.08
2018-03-08T21:07:07.268Z,98712.70
2018-03-08T21:10:09.040Z,98711.38
2018-03-08T21:13:11.478Z,98719.36
2018-03-08T21:16:14.264Z,98723.96
2018-03-08T21:19:15.537Z,98721.29
2018-03-08T21:22:17.114Z,98731.03
2018-03-08T21:25:18.353Z,98731.98
2018-03-08T21:28:19.580Z,98745.62
2018-03-08T21:31:21.744Z,98737.96
2018-03-08T21:34:23.110Z,98746.08
2018-03-08T21:37:24.367Z,98757.34
2018-03-08T21:40:25.730Z,98755.88
2018-03-08T21:43:26.975Z,98750.89
2018-03-08T21:46:28.215Z,98765.31
2018-03-08T21:49:29.497Z,98768.11
2018-03-08T21:52:30.749Z,98793.20
2018-03-08T21:55:32.027Z,98770.61
2018-03-08T21:58:33.298Z,98781.16
2018-03-08T22:01:34.539Z,98784.13
2018-03-08T22:04:35.899Z,98798.10
2018-03-08T22:07:37.456Z,98786.33
2018-03-08T22:10:38.722Z,98786.20
2018-03-08T22:13:39.965Z,98788.80
2018-03-08T22:16:41.915Z,98794.37
2018-03-08T22:19:43.272Z,98804.72
2018-03-08T22:22:44.517Z,98803.82
2018-03-08T22:25:45.726Z,98798.31
2018-03-08T22:28:48.137Z,98814.35
2018-03-08T22:31:49.411Z,98816.30
2018-03-08T22:34:50.632Z,98812.30
2018-03-08T22:37:51.875Z,98826.32
2018-03-08T22:40:53.124Z,98813.67
2018-03-08T22:43:54.376Z,98826.66
2018-03-08T22:46:55.604Z,98827.92
2018-03-08T22:49:57.609Z,98832.14
2018-03-08T22:52:58.852Z,98836.23
2018-03-08T22:56:00.516Z,98831.19
2018-03-08T22:59:02.554Z,98834.42
2018-03-08T23:02:12.988Z,98840.25
2018-03-08T23:05:14.949Z,98840.33
2018-03-08T23:08:16.920Z,98835.52
2018-03-08T23:11:18.156Z,98845.27
2018-03-08T23:14:19.385Z,98845.08
2018-03-08T23:17:20.635Z,98850.39
2018-03-08T23:20:21.865Z,98854.72
2018-03-08T23:23:23.097Z,98848.44
2018-03-08T23:26:24.354Z,98857.13
2018-03-08T23:29:25.569Z,98862.69
2018-03-08T23:32:27.554Z,98861.76
2018-03-08T23:35:29.521Z,98877.81
2018-03-08T23:38:30.742Z,98876.89
2018-03-08T23:41:31.979Z,98884.03
2018-03-08T23:44:33.219Z,98880.58
2018-03-08T23:47:35.190Z,98884.51
2018-03-08T23:50:37.181Z,98876.69
2018-03-08T23:53:39.152Z,98880.23
2018-03-08T23:56:40.382Z,98891.84
2018-03-08T23:59:41.603Z,98882.34
